createdAt,value
2023-01-12T21:07:12.340Z,97156.38
2023-01-12T21:09:41.837Z,97150.50
2023-01-12T21:12:11.001Z,97130.84
2023-01-12T21:14:40.460Z,97157.09
2023-01-12T21:17:09.802Z,97156.34
2023-01-12T21:19:39.082Z,97159.72
2023-01-12T21:22:07.842Z,97143.69
2023-01-12T21:24:40.608Z,97147.88
2023-01-12T21:27:09.964Z,97143.13
2023-01-12T21:29:38.905Z,97158.94
2023-01-12T21:32:07.483Z,97149.22
2023-01-12T21:34:35.936Z,97147.25
2023-01-12T21:37:05.109Z,97146.50
2023-01-12T21:39:33.557Z,97137.97
2023-01-12T21:42:21.049Z,97137.16
2023-01-12T21:44:49.673Z,97130.09
2023-01-12T21:47:17.873Z,97130.81
2023-01-12T21:49:45.959Z,97117.78
2023-01-12T21:52:13.943Z,97121.47
2023-01-12T21:54:42.109Z,97125.09
2023-01-12T21:57:11.558Z,97110.84
2023-01-12T21:59:39.704Z,97119.78
2023-01-12T22:02:07.889Z,97121.06
2023-01-12T22:04:36.295Z,97116.25
2023-01-12T22:07:04.711Z,97111.03
2023-01-12T22:09:33.579Z,97110.03
2023-01-12T22:12:02.469Z,97123.34
2023-01-12T22:14:32.722Z,97123.84
2023-01-12T22:17:01.269Z,97111.97
2023-01-12T22:19:29.891Z,97119.38
2023-01-12T22:21:58.678Z,97117.13
2023-01-12T22:24:27.976Z,97119.03
2023-01-12T22:26:56.320Z,97101.78
2023-01-12T22:29:25.093Z,97102.44
2023-01-12T22:31:54.999Z,97113.94
2023-01-12T22:34:25.707Z,97111.44
2023-01-12T22:36:54.068Z,97112.22
2023-01-12T22:39:22.320Z,97105.06
2023-01-12T22:41:51.529Z,97112.00
2023-01-12T22:44:20.455Z,97113.44
2023-01-12T22:46:49.493Z,97118.47
2023-01-12T22:49:19.791Z,97104.81
2023-01-12T22:51:48.508Z,97095.56
2023-01-12T22:54:17.385Z,97097.50
2023-01-12T22:56:46.936Z,97089.22
2023-01-12T22:59:16.357Z,97095.69
2023-01-12T23:01:45.127Z,97095.44
2023-01-12T23:04:14.027Z,97106.03
2023-01-12T23:06:43.944Z,97080.84
2023-01-12T23:09:13.820Z,97085.13
2023-01-12T23:11:43.136Z,97086.91
2023-01-12T23:14:11.943Z,97073.31
2023-01-12T23:16:40.402Z,97073.75
2023-01-12T23:19:09.508Z,97064.28
2023-01-12T23:21:38.072Z,97068.69
2023-01-12T23:24:08.423Z,97066.34
2023-01-12T23:26:37.195Z,97059.75
2023-01-12T23:29:05.911Z,97053.53
2023-01-12T23:31:36.044Z,97058.19
2023-01-12T23:34:05.526Z,97046.22
2023-01-12T23:36:35.127Z,97055.47
2023-01-12T23:39:05.494Z,97047.25
2023-01-12T23:41:37.217Z,97060.03
2023-01-12T23:44:08.158Z,97068.13
2023-01-12T23:46:38.515Z,97065.72
2023-01-12T23:49:07.958Z,97059.22
2023-01-12T23:51:36.879Z,97046.16
2023-01-12T23:54:06.556Z,97044.72
2023-01-12T23:56:37.903Z,97051.28
2023-01-12T23:59:09.868Z,97040.16
